Sachse's Hourly Summary for Thursday, May 10, 2018
Hour Temp
(f)
RH
(%)
Solar Rad.
(MJ/m2)
Rainfall
(in)
Wind
(mph)
5/10/2018 12:00 AM 73 55 0 0 3.99
5/10/2018 1:00 AM 72 53 0 0 3.99
5/10/2018 2:00 AM 73 49 0 0 6.52
5/10/2018 3:00 AM 72 48 0 0 7.4
5/10/2018 4:00 AM 70 53 0 0 7.54
5/10/2018 5:00 AM 69 55 0 0 6.46
5/10/2018 6:00 AM 67 60 0 0 5.99
5/10/2018 7:00 AM 65 70 0.02 0 4.91
5/10/2018 8:00 AM 66 79 0.45 0 6.69
5/10/2018 9:00 AM 69 70 1.13 0 7.12
5/10/2018 10:00 AM 72 58 1.37 0 7.5
5/10/2018 11:00 AM 75 51 2.36 0 7.75
5/10/2018 12:00 PM 78 45 2.77 0 7.64
5/10/2018 1:00 PM 80 42 2.88 0 9.52
5/10/2018 2:00 PM 81 37 2.85 0 10.3
5/10/2018 3:00 PM 82 40 2.7 0 8.78
5/10/2018 4:00 PM 83 39 2.59 0 9.33
5/10/2018 5:00 PM 83 38 1.86 0 9.41
5/10/2018 6:00 PM 83 38 0.83 0 10.86
5/10/2018 7:00 PM 82 40 0.67 0 8.96
5/10/2018 8:00 PM 81 45 0.27 0 7.64
5/10/2018 9:00 PM 78 47 0.01 0 6.44
5/10/2018 10:00 PM 76 51 0 0 5.79
5/10/2018 11:00 PM 75 57 0 0 5.4
Data Summary 75 50 22.76 0.00 7.33